sensor_id;sensor_type;location;lat;lon;timestamp;temperature;humidity
22167;DHT22;11249;52.468;13.776;2023-06-04T00:01:40;9.00;99.90
22167;DHT22;11249;52.468;13.776;2023-06-04T00:04:07;9.00;99.90
22167;DHT22;11249;52.468;13.776;2023-06-04T00:06:34;9.00;99.90
22167;DHT22;11249;52.468;13.776;2023-06-04T00:09:02;8.90;99.90
22167;DHT22;11249;52.468;13.776;2023-06-04T00:11:28;8.90;99.90
22167;DHT22;11249;52.468;13.776;2023-06-04T00:13:55;8.80;99.90
22167;DHT22;11249;52.468;13.776;2023-06-04T00:16:22;8.70;99.90
22167;DHT22;11249;52.468;13.776;2023-06-04T00:18:49;8.70;99.90
22167;DHT22;11249;52.468;13.776;2023-06-04T00:21:16;8.70;99.90
22167;DHT22;11249;52.468;13.776;2023-06-04T00:23:42;8.60;99.90
22167;DHT22;11249;52.468;13.776;2023-06-04T00:26:09;8.60;99.90
22167;DHT22;11249;52.468;13.776;2023-06-04T00:28:36;8.50;99.90
22167;DHT22;11249;52.468;13.776;2023-06-04T00:31:05;8.50;99.90
22167;DHT22;11249;52.468;13.776;2023-06-04T00:33:32;8.40;99.90
22167;DHT22;11249;52.468;13.776;2023-06-04T00:36:01;8.40;99.90
22167;DHT22;11249;52.468;13.776;2023-06-04T00:38:28;8.30;99.90
22167;DHT22;11249;52.468;13.776;2023-06-04T00:40:55;8.30;99.90
22167;DHT22;11249;52.468;13.776;2023-06-04T00:43:23;8.20;99.90
22167;DHT22;11249;52.468;13.776;2023-06-04T00:45:52;8.20;99.90
22167;DHT22;11249;52.468;13.776;2023-06-04T00:48:20;8.20;99.90
22167;DHT22;11249;52.468;13.776;2023-06-04T00:50:47;8.10;99.90
22167;DHT22;11249;52.468;13.776;2023-06-04T00:53:15;8.10;99.90
22167;DHT22;11249;52.468;13.776;2023-06-04T00:55:41;8.00;99.90
22167;DHT22;11249;52.468;13.776;2023-06-04T00:58:09;8.00;99.90
22167;DHT22;11249;52.468;13.776;2023-06-04T01:00:36;8.00;99.90
22167;DHT22;11249;52.468;13.776;2023-06-04T01:03:07;8.00;99.90
22167;DHT22;11249;52.468;13.776;2023-06-04T01:05:41;8.00;99.90
22167;DHT22;11249;52.468;13.776;2023-06-04T01:08:11;7.90;99.90
22167;DHT22;11249;52.468;13.776;2023-06-04T01:10:38;7.90;99.90
22167;DHT22;11249;52.468;13.776;2023-06-04T01:13:16;7.80;99.90
22167;DHT22;11249;52.468;13.776;2023-06-04T01:15:43;7.80;99.90
22167;DHT22;11249;52.468;13.776;2023-06-04T01:18:10;7.80;99.90
22167;DHT22;11249;52.468;13.776;2023-06-04T01:20:44;7.80;99.90
22167;DHT22;11249;52.468;13.776;2023-06-04T01:23:28;7.70;99.90
22167;DHT22;11249;52.468;13.776;2023-06-04T01:26:01;7.70;99.90
22167;DHT22;11249;52.468;13.776;2023-06-04T01:28:34;7.70;99.90
22167;DHT22;11249;52.468;13.776;2023-06-04T01:31:01;7.70;99.90
22167;DHT22;11249;52.468;13.776;2023-06-04T01:33:29;7.60;99.90
22167;DHT22;11249;52.468;13.776;2023-06-04T01:35:56;7.60;99.90
22167;DHT22;11249;52.468;13.776;2023-06-04T01:38:23;7.50;99.90
22167;DHT22;11249;52.468;13.776;2023-06-04T01:40:50;7.50;99.90
22167;DHT22;11249;52.468;13.776;2023-06-04T01:43:17;7.50;99.90
22167;DHT22;11249;52.468;13.776;2023-06-04T01:45:45;7.40;99.90
22167;DHT22;11249;52.468;13.776;2023-06-04T01:48:12;7.40;99.90
22167;DHT22;11249;52.468;13.776;2023-06-04T01:50:38;7.30;99.90
22167;DHT22;11249;52.468;13.776;2023-06-04T01:53:05;7.30;99.90
22167;DHT22;11249;52.468;13.776;2023-06-04T01:55:32;7.30;99.90
22167;DHT22;11249;52.468;13.776;2023-06-04T01:58:00;7.30;99.90
22167;DHT22;11249;52.468;13.776;2023-06-04T02:00:27;7.20;99.90
22167;DHT22;11249;52.468;13.776;2023-06-04T02:02:54;7.20;99.90
22167;DHT22;11249;52.468;13.776;2023-06-04T02:05:22;7.20;99.90
22167;DHT22;11249;52.468;13.776;2023-06-04T02:07:49;7.10;99.90
22167;DHT22;11249;52.468;13.776;2023-06-04T02:10:18;7.10;99.90
22167;DHT22;11249;52.468;13.776;2023-06-04T02:15:22;7.10;99.90
22167;DHT22;11249;52.468;13.776;2023-06-04T02:17:50;7.00;99.90
22167;DHT22;11249;52.468;13.776;2023-06-04T02:20:17;7.00;99.90
22167;DHT22;11249;52.468;13.776;2023-06-04T02:22:44;6.90;99.90
22167;DHT22;11249;52.468;13.776;2023-06-04T02:25:11;6.90;99.90
22167;DHT22;11249;52.468;13.776;2023-06-04T02:27:37;6.90;99.90
22167;DHT22;11249;52.468;13.776;2023-06-04T02:30:05;6.90;99.90
22167;DHT22;11249;52.468;13.776;2023-06-04T02:32:32;6.80;99.90
22167;DHT22;11249;52.468;13.776;2023-06-04T02:35:00;6.80;99.90
22167;DHT22;11249;52.468;13.776;2023-06-04T02:37:26;6.80;99.90
22167;DHT22;11249;52.468;13.776;2023-06-04T02:39:53;6.80;99.90
22167;DHT22;11249;52.468;13.776;2023-06-04T02:42:20;6.80;99.90
22167;DHT22;11249;52.468;13.776;2023-06-04T02:44:47;6.70;99.90
22167;DHT22;11249;52.468;13.776;2023-06-04T02:47:14;6.70;99.90
22167;DHT22;11249;52.468;13.776;2023-06-04T02:49:40;6.70;99.90
22167;DHT22;11249;52.468;13.776;2023-06-04T02:52:07;6.60;99.90
22167;DHT22;11249;52.468;13.776;2023-06-04T02:54:34;6.70;99.90
22167;DHT22;11249;52.468;13.776;2023-06-04T02:57:01;6.60;99.90
22167;DHT22;11249;52.468;13.776;2023-06-04T02:59:28;6.60;99.90
22167;DHT22;11249;52.468;13.776;2023-06-04T03:01:54;6.60;99.90
22167;DHT22;11249;52.468;13.776;2023-06-04T03:04:21;6.60;99.90
22167;DHT22;11249;52.468;13.776;2023-06-04T03:06:48;6.60;99.90
22167;DHT22;11249;52.468;13.776;2023-06-04T03:09:23;6.60;99.90
22167;DHT22;11249;52.468;13.776;2023-06-04T03:11:50;6.60;99.90
22167;DHT22;11249;52.468;13.776;2023-06-04T03:14:20;6.60;99.90
22167;DHT22;11249;52.468;13.776;2023-06-04T03:16:47;6.60;99.90
22167;DHT22;11249;52.468;13.776;2023-06-04T03:19:15;6.60;99.90
22167;DHT22;11249;52.468;13.776;2023-06-04T03:21:43;6.60;99.90
22167;DHT22;11249;52.468;13.776;2023-06-04T03:24:11;6.60;99.90
22167;DHT22;11249;52.468;13.776;2023-06-04T03:26:38;6.60;99.90
22167;DHT22;11249;52.468;13.776;2023-06-04T03:29:05;6.60;99.90
22167;DHT22;11249;52.468;13.776;2023-06-04T03:31:32;6.60;99.90
22167;DHT22;11249;52.468;13.776;2023-06-04T03:33:59;6.60;99.90
22167;DHT22;11249;52.468;13.776;2023-06-04T03:36:26;6.60;99.90
22167;DHT22;11249;52.468;13.776;2023-06-04T03:38:58;6.70;99.90
22167;DHT22;11249;52.468;13.776;2023-06-04T03:41:25;6.70;99.90
22167;DHT22;11249;52.468;13.776;2023-06-04T03:43:52;6.70;99.90
22167;DHT22;11249;52.468;13.776;2023-06-04T03:46:19;6.70;99.90
22167;DHT22;11249;52.468;13.776;2023-06-04T03:48:46;6.70;99.90
22167;DHT22;11249;52.468;13.776;2023-06-04T03:51:12;6.80;99.90
22167;DHT22;11249;52.468;13.776;2023-06-04T03:53:39;6.80;99.90
22167;DHT22;11249;52.468;13.776;2023-06-04T03:56:07;6.90;99.90
22167;DHT22;11249;52.468;13.776;2023-06-04T03:58:37;6.90;99.90
22167;DHT22;11249;52.468;13.776;2023-06-04T04:01:04;7.00;99.90
22167;DHT22;11249;52.468;13.776;2023-06-04T04:03:31;7.00;99.90
22167;DHT22;11249;52.468;13.776;2023-06-04T04:06:00;7.00;99.90
22167;DHT22;11249;52.468;13.776;2023-06-04T04:08:26;7.10;99.90
22167;DHT22;11249;52.468;13.776;2023-06-04T04:10:57;7.10;99.90
22167;DHT22;11249;52.468;13.776;2023-06-04T04:13:24;7.20;99.90
22167;DHT22;11249;52.468;13.776;2023-06-04T04:15:51;7.20;99.90
22167;DHT22;11249;52.468;13.776;2023-06-04T04:18:22;7.30;99.90
22167;DHT22;11249;52.468;13.776;2023-06-04T04:20:49;7.40;99.90
22167;DHT22;11249;52.468;13.776;2023-06-04T04:23:16;7.50;99.90
22167;DHT22;11249;52.468;13.776;2023-06-04T04:25:43;7.50;99.90
22167;DHT22;11249;52.468;13.776;2023-06-04T04:28:11;7.60;99.90
22167;DHT22;11249;52.468;13.776;2023-06-04T04:30:40;7.60;99.90
22167;DHT22;11249;52.468;13.776;2023-06-04T04:33:07;7.70;99.90
22167;DHT22;11249;52.468;13.776;2023-06-04T04:35:34;7.70;99.90
22167;DHT22;11249;52.468;13.776;2023-06-04T04:38:01;7.80;99.90
22167;DHT22;11249;52.468;13.776;2023-06-04T04:40:31;7.90;99.90
22167;DHT22;11249;52.468;13.776;2023-06-04T04:42:58;8.00;99.90
22167;DHT22;11249;52.468;13.776;2023-06-04T04:45:24;8.00;99.90
22167;DHT22;11249;52.468;13.776;2023-06-04T04:47:51;8.20;99.90
22167;DHT22;11249;52.468;13.776;2023-06-04T04:50:18;8.30;99.90
22167;DHT22;11249;52.468;13.776;2023-06-04T04:52:45;8.40;99.90
22167;DHT22;11249;52.468;13.776;2023-06-04T04:55:12;8.50;99.90
22167;DHT22;11249;52.468;13.776;2023-06-04T04:57:39;8.50;99.90
22167;DHT22;11249;52.468;13.776;2023-06-04T05:00:06;8.60;99.90
22167;DHT22;11249;52.468;13.776;2023-06-04T05:02:35;8.80;99.90
22167;DHT22;11249;52.468;13.776;2023-06-04T05:05:03;8.90;99.90
22167;DHT22;11249;52.468;13.776;2023-06-04T05:07:30;9.10;99.90
22167;DHT22;11249;52.468;13.776;2023-06-04T05:09:57;9.20;99.90
22167;DHT22;11249;52.468;13.776;2023-06-04T05:12:25;9.40;99.90
22167;DHT22;11249;52.468;13.776;2023-06-04T05:14:53;9.50;99.90
22167;DHT22;11249;52.468;13.776;2023-06-04T05:17:19;9.60;99.90
22167;DHT22;11249;52.468;13.776;2023-06-04T05:19:57;9.80;99.90
22167;DHT22;11249;52.468;13.776;2023-06-04T05:22:28;9.90;99.90
22167;DHT22;11249;52.468;13.776;2023-06-04T05:24:55;10.10;99.90
22167;DHT22;11249;52.468;13.776;2023-06-04T05:27:26;10.20;99.90
22167;DHT22;11249;52.468;13.776;2023-06-04T05:29:53;10.30;99.90
22167;DHT22;11249;52.468;13.776;2023-06-04T05:32:19;10.40;99.90
22167;DHT22;11249;52.468;13.776;2023-06-04T05:34:49;10.60;99.90
22167;DHT22;11249;52.468;13.776;2023-06-04T05:37:16;10.70;99.90
22167;DHT22;11249;52.468;13.776;2023-06-04T05:39:43;10.80;99.90
22167;DHT22;11249;52.468;13.776;2023-06-04T05:42:09;10.90;99.90
22167;DHT22;11249;52.468;13.776;2023-06-04T05:44:37;11.00;99.90
22167;DHT22;11249;52.468;13.776;2023-06-04T05:47:03;11.10;99.90
22167;DHT22;11249;52.468;13.776;2023-06-04T05:49:30;11.30;99.90
22167;DHT22;11249;52.468;13.776;2023-06-04T05:51:57;11.50;99.90
22167;DHT22;11249;52.468;13.776;2023-06-04T05:54:24;11.60;99.90
22167;DHT22;11249;52.468;13.776;2023-06-04T05:56:50;11.80;99.90
22167;DHT22;11249;52.468;13.776;2023-06-04T05:59:17;11.90;99.90
22167;DHT22;11249;52.468;13.776;2023-06-04T06:01:44;12.00;99.90
22167;DHT22;11249;52.468;13.776;2023-06-04T06:04:11;12.20;99.90
22167;DHT22;11249;52.468;13.776;2023-06-04T06:06:39;12.30;99.90
22167;DHT22;11249;52.468;13.776;2023-06-04T06:09:06;12.40;99.90
22167;DHT22;11249;52.468;13.776;2023-06-04T06:11:32;12.60;99.90
22167;DHT22;11249;52.468;13.776;2023-06-04T06:13:59;12.70;99.90
22167;DHT22;11249;52.468;13.776;2023-06-04T06:16:26;12.80;99.90
22167;DHT22;11249;52.468;13.776;2023-06-04T06:18:53;13.00;99.90
22167;DHT22;11249;52.468;13.776;2023-06-04T06:21:20;13.10;99.90
22167;DHT22;11249;52.468;13.776;2023-06-04T06:23:47;13.20;99.90
22167;DHT22;11249;52.468;13.776;2023-06-04T06:26:14;13.30;99.90
22167;DHT22;11249;52.468;13.776;2023-06-04T06:28:41;13.40;99.90
22167;DHT22;11249;52.468;13.776;2023-06-04T06:31:08;13.50;99.90
22167;DHT22;11249;52.468;13.776;2023-06-04T06:33:35;13.60;99.90
22167;DHT22;11249;52.468;13.776;2023-06-04T06:36:09;13.70;99.90
22167;DHT22;11249;52.468;13.776;2023-06-04T06:38:36;13.90;99.90
22167;DHT22;11249;52.468;13.776;2023-06-04T06:41:02;13.90;99.90
22167;DHT22;11249;52.468;13.776;2023-06-04T06:43:29;14.00;99.90
22167;DHT22;11249;52.468;13.776;2023-06-04T06:45:56;14.20;99.90
22167;DHT22;11249;52.468;13.776;2023-06-04T06:48:23;14.20;99.90
22167;DHT22;11249;52.468;13.776;2023-06-04T06:50:50;14.50;99.90
22167;DHT22;11249;52.468;13.776;2023-06-04T06:53:16;14.70;99.90
22167;DHT22;11249;52.468;13.776;2023-06-04T06:55:43;14.70;99.90
22167;DHT22;11249;52.468;13.776;2023-06-04T06:58:10;14.80;99.90
22167;DHT22;11249;52.468;13.776;2023-06-04T07:00:37;14.90;99.90
22167;DHT22;11249;52.468;13.776;2023-06-04T07:03:04;15.10;99.90
22167;DHT22;11249;52.468;13.776;2023-06-04T07:05:31;15.20;99.90
22167;DHT22;11249;52.468;13.776;2023-06-04T07:07:57;15.20;99.90
22167;DHT22;11249;52.468;13.776;2023-06-04T07:10:25;15.40;99.90
22167;DHT22;11249;52.468;13.776;2023-06-04T07:12:52;15.50;99.90
22167;DHT22;11249;52.468;13.776;2023-06-04T07:15:19;15.70;99.90
22167;DHT22;11249;52.468;13.776;2023-06-04T07:17:46;15.80;99.90
22167;DHT22;11249;52.468;13.776;2023-06-04T07:20:13;15.90;99.90
22167;DHT22;11249;52.468;13.776;2023-06-04T07:22:39;16.00;99.90
22167;DHT22;11249;52.468;13.776;2023-06-04T07:25:07;16.10;99.90
22167;DHT22;11249;52.468;13.776;2023-06-04T07:27:34;16.20;99.90
22167;DHT22;11249;52.468;13.776;2023-06-04T07:30:01;16.30;99.90
22167;DHT22;11249;52.468;13.776;2023-06-04T07:32:28;16.50;99.90
22167;DHT22;11249;52.468;13.776;2023-06-04T07:34:55;16.60;99.90
22167;DHT22;11249;52.468;13.776;2023-06-04T07:37:21;16.60;99.90
22167;DHT22;11249;52.468;13.776;2023-06-04T07:39:48;16.60;99.90
22167;DHT22;11249;52.468;13.776;2023-06-04T07:42:15;16.70;99.90
22167;DHT22;11249;52.468;13.776;2023-06-04T07:44:42;16.70;99.90
22167;DHT22;11249;52.468;13.776;2023-06-04T07:47:08;16.90;99.90
22167;DHT22;11249;52.468;13.776;2023-06-04T07:49:35;17.00;99.90
22167;DHT22;11249;52.468;13.776;2023-06-04T07:52:16;17.00;99.90
22167;DHT22;11249;52.468;13.776;2023-06-04T07:54:42;17.10;99.90
22167;DHT22;11249;52.468;13.776;2023-06-04T07:57:09;17.20;99.90
22167;DHT22;11249;52.468;13.776;2023-06-04T07:59:36;17.40;99.90
22167;DHT22;11249;52.468;13.776;2023-06-04T08:02:03;17.50;99.90
22167;DHT22;11249;52.468;13.776;2023-06-04T08:04:30;17.50;99.90
22167;DHT22;11249;52.468;13.776;2023-06-04T08:06:57;17.50;99.90
22167;DHT22;11249;52.468;13.776;2023-06-04T08:09:24;17.60;99.90
22167;DHT22;11249;52.468;13.776;2023-06-04T08:11:51;17.60;99.90
22167;DHT22;11249;52.468;13.776;2023-06-04T08:14:18;17.60;99.90
22167;DHT22;11249;52.468;13.776;2023-06-04T08:16:46;17.60;99.90
22167;DHT22;11249;52.468;13.776;2023-06-04T08:19:13;17.70;99.90
22167;DHT22;11249;52.468;13.776;2023-06-04T08:21:40;17.80;99.90
22167;DHT22;11249;52.468;13.776;2023-06-04T08:24:09;17.90;99.90
22167;DHT22;11249;52.468;13.776;2023-06-04T08:26:35;18.00;99.90
22167;DHT22;11249;52.468;13.776;2023-06-04T08:29:03;18.10;99.90
22167;DHT22;11249;52.468;13.776;2023-06-04T08:31:33;18.10;99.90
22167;DHT22;11249;52.468;13.776;2023-06-04T08:34:00;18.20;99.90
22167;DHT22;11249;52.468;13.776;2023-06-04T08:36:27;18.30;99.90
22167;DHT22;11249;52.468;13.776;2023-06-04T08:38:54;18.40;99.90
22167;DHT22;11249;52.468;13.776;2023-06-04T08:41:29;18.40;99.90
22167;DHT22;11249;52.468;13.776;2023-06-04T08:43:56;18.40;99.90
22167;DHT22;11249;52.468;13.776;2023-06-04T08:46:28;18.40;99.90
22167;DHT22;11249;52.468;13.776;2023-06-04T08:49:00;18.50;99.90
22167;DHT22;11249;52.468;13.776;2023-06-04T08:51:32;18.70;99.90
22167;DHT22;11249;52.468;13.776;2023-06-04T08:54:00;18.90;99.90
22167;DHT22;11249;52.468;13.776;2023-06-04T08:56:27;18.90;99.70
22167;DHT22;11249;52.468;13.776;2023-06-04T08:59:06;18.90;99.90
22167;DHT22;11249;52.468;13.776;2023-06-04T09:01:35;18.90;99.90
22167;DHT22;11249;52.468;13.776;2023-06-04T09:04:05;18.90;99.30
22167;DHT22;11249;52.468;13.776;2023-06-04T09:06:36;19.00;99.10
22167;DHT22;11249;52.468;13.776;2023-06-04T09:09:05;19.00;98.00
22167;DHT22;11249;52.468;13.776;2023-06-04T09:11:42;19.00;98.90
22167;DHT22;11249;52.468;13.776;2023-06-04T09:14:14;19.20;99.90
22167;DHT22;11249;52.468;13.776;2023-06-04T09:16:47;19.30;99.50
22167;DHT22;11249;52.468;13.776;2023-06-04T09:19:15;19.40;97.90
22167;DHT22;11249;52.468;13.776;2023-06-04T09:21:54;19.50;97.70
22167;DHT22;11249;52.468;13.776;2023-06-04T09:24:22;19.50;97.60
22167;DHT22;11249;52.468;13.776;2023-06-04T09:26:50;19.60;97.10
22167;DHT22;11249;52.468;13.776;2023-06-04T09:29:18;19.60;97.90
22167;DHT22;11249;52.468;13.776;2023-06-04T09:31:45;19.60;96.90
22167;DHT22;11249;52.468;13.776;2023-06-04T09:34:14;19.60;96.40
22167;DHT22;11249;52.468;13.776;2023-06-04T09:36:41;19.50;96.80
22167;DHT22;11249;52.468;13.776;2023-06-04T09:39:15;19.70;97.00
22167;DHT22;11249;52.468;13.776;2023-06-04T09:41:43;19.90;97.20
22167;DHT22;11249;52.468;13.776;2023-06-04T09:44:10;20.00;96.30
22167;DHT22;11249;52.468;13.776;2023-06-04T09:46:39;20.20;95.00
22167;DHT22;11249;52.468;13.776;2023-06-04T09:49:06;20.30;95.40
22167;DHT22;11249;52.468;13.776;2023-06-04T09:51:33;20.20;94.40
22167;DHT22;11249;52.468;13.776;2023-06-04T09:54:02;20.20;95.10
22167;DHT22;11249;52.468;13.776;2023-06-04T09:56:29;20.30;95.00
22167;DHT22;11249;52.468;13.776;2023-06-04T09:59:00;20.40;95.30
22167;DHT22;11249;52.468;13.776;2023-06-04T10:01:29;20.50;94.90
22167;DHT22;11249;52.468;13.776;2023-06-04T10:03:58;20.60;94.50
22167;DHT22;11249;52.468;13.776;2023-06-04T10:06:33;20.80;94.70
22167;DHT22;11249;52.468;13.776;2023-06-04T10:09:09;20.90;93.50
22167;DHT22;11249;52.468;13.776;2023-06-04T10:11:46;20.70;92.90
22167;DHT22;11249;52.468;13.776;2023-06-04T10:14:22;20.80;93.60
22167;DHT22;11249;52.468;13.776;2023-06-04T10:16:52;20.90;93.80
22167;DHT22;11249;52.468;13.776;2023-06-04T10:19:20;21.10;93.40
22167;DHT22;11249;52.468;13.776;2023-06-04T10:21:47;21.30;93.60
22167;DHT22;11249;52.468;13.776;2023-06-04T10:24:14;21.30;92.80
22167;DHT22;11249;52.468;13.776;2023-06-04T10:26:42;21.50;92.70
22167;DHT22;11249;52.468;13.776;2023-06-04T10:29:10;21.50;91.80
22167;DHT22;11249;52.468;13.776;2023-06-04T10:31:38;21.50;92.20
22167;DHT22;11249;52.468;13.776;2023-06-04T10:34:05;21.70;91.60
22167;DHT22;11249;52.468;13.776;2023-06-04T10:36:45;21.80;91.70
22167;DHT22;11249;52.468;13.776;2023-06-04T10:39:13;21.90;91.80
22167;DHT22;11249;52.468;13.776;2023-06-04T10:41:39;22.10;91.50
22167;DHT22;11249;52.468;13.776;2023-06-04T10:44:07;22.10;91.10
22167;DHT22;11249;52.468;13.776;2023-06-04T10:46:40;22.40;91.60
22167;DHT22;11249;52.468;13.776;2023-06-04T10:49:09;22.70;90.50
22167;DHT22;11249;52.468;13.776;2023-06-04T10:51:37;22.80;89.00
22167;DHT22;11249;52.468;13.776;2023-06-04T10:54:04;22.90;88.70
22167;DHT22;11249;52.468;13.776;2023-06-04T10:56:33;23.10;89.50
22167;DHT22;11249;52.468;13.776;2023-06-04T10:59:01;23.20;87.40
22167;DHT22;11249;52.468;13.776;2023-06-04T11:01:38;23.20;86.80
22167;DHT22;11249;52.468;13.776;2023-06-04T11:04:06;23.10;86.70
22167;DHT22;11249;52.468;13.776;2023-06-04T11:06:33;23.20;87.00
22167;DHT22;11249;52.468;13.776;2023-06-04T11:09:03;23.50;87.90
22167;DHT22;11249;52.468;13.776;2023-06-04T11:11:32;23.90;86.00
22167;DHT22;11249;52.468;13.776;2023-06-04T11:14:11;24.20;86.60
22167;DHT22;11249;52.468;13.776;2023-06-04T11:16:39;24.60;86.10
22167;DHT22;11249;52.468;13.776;2023-06-04T11:19:06;24.70;83.90
22167;DHT22;11249;52.468;13.776;2023-06-04T11:21:37;24.80;83.40
22167;DHT22;11249;52.468;13.776;2023-06-04T11:24:04;25.20;83.10
22167;DHT22;11249;52.468;13.776;2023-06-04T11:26:33;25.10;80.70
22167;DHT22;11249;52.468;13.776;2023-06-04T11:29:10;25.50;82.20
22167;DHT22;11249;52.468;13.776;2023-06-04T11:31:47;25.80;79.80
22167;DHT22;11249;52.468;13.776;2023-06-04T11:34:27;25.90;77.40
22167;DHT22;11249;52.468;13.776;2023-06-04T11:36:55;25.60;77.40
22167;DHT22;11249;52.468;13.776;2023-06-04T11:39:22;25.40;75.70
22167;DHT22;11249;52.468;13.776;2023-06-04T11:41:50;25.50;76.60
22167;DHT22;11249;52.468;13.776;2023-06-04T11:44:19;25.70;75.20
22167;DHT22;11249;52.468;13.776;2023-06-04T11:46:46;25.70;75.80
22167;DHT22;11249;52.468;13.776;2023-06-04T11:49:16;25.80;76.00
22167;DHT22;11249;52.468;13.776;2023-06-04T11:51:47;25.90;74.30
22167;DHT22;11249;52.468;13.776;2023-06-04T11:54:18;26.30;74.90
22167;DHT22;11249;52.468;13.776;2023-06-04T11:56:48;26.00;74.50
22167;DHT22;11249;52.468;13.776;2023-06-04T11:59:15;25.90;74.50
22167;DHT22;11249;52.468;13.776;2023-06-04T12:01:47;25.90;75.30
22167;DHT22;11249;52.468;13.776;2023-06-04T12:04:18;26.30;75.10
22167;DHT22;11249;52.468;13.776;2023-06-04T12:06:56;26.40;73.00
22167;DHT22;11249;52.468;13.776;2023-06-04T12:09:29;26.80;72.20
22167;DHT22;11249;52.468;13.776;2023-06-04T12:11:59;27.30;72.40
22167;DHT22;11249;52.468;13.776;2023-06-04T12:14:29;26.70;69.80
22167;DHT22;11249;52.468;13.776;2023-06-04T12:17:08;26.80;70.70
22167;DHT22;11249;52.468;13.776;2023-06-04T12:19:47;27.40;71.60
22167;DHT22;11249;52.468;13.776;2023-06-04T12:22:16;27.70;69.70
22167;DHT22;11249;52.468;13.776;2023-06-04T12:24:48;27.80;69.80
22167;DHT22;11249;52.468;13.776;2023-06-04T12:27:15;27.50;67.70
22167;DHT22;11249;52.468;13.776;2023-06-04T12:29:42;28.20;68.50
22167;DHT22;11249;52.468;13.776;2023-06-04T12:32:10;28.70;67.50
22167;DHT22;11249;52.468;13.776;2023-06-04T12:34:40;29.10;67.70
22167;DHT22;11249;52.468;13.776;2023-06-04T12:37:08;29.50;65.10
22167;DHT22;11249;52.468;13.776;2023-06-04T12:39:35;29.70;65.50
22167;DHT22;11249;52.468;13.776;2023-06-04T12:42:06;30.00;61.90
22167;DHT22;11249;52.468;13.776;2023-06-04T12:44:39;30.00;63.30
22167;DHT22;11249;52.468;13.776;2023-06-04T12:47:07;28.80;64.60
22167;DHT22;11249;52.468;13.776;2023-06-04T12:49:34;28.60;65.00
22167;DHT22;11249;52.468;13.776;2023-06-04T12:52:01;29.00;65.30
22167;DHT22;11249;52.468;13.776;2023-06-04T12:54:28;29.20;64.90
22167;DHT22;11249;52.468;13.776;2023-06-04T12:56:55;29.00;63.60
22167;DHT22;11249;52.468;13.776;2023-06-04T12:59:26;28.90;63.90
22167;DHT22;11249;52.468;13.776;2023-06-04T13:01:54;28.80;63.60
22167;DHT22;11249;52.468;13.776;2023-06-04T13:04:21;28.60;65.50
22167;DHT22;11249;52.468;13.776;2023-06-04T13:06:51;29.00;64.40
22167;DHT22;11249;52.468;13.776;2023-06-04T13:09:19;28.90;63.70
22167;DHT22;11249;52.468;13.776;2023-06-04T13:11:47;28.80;62.40
22167;DHT22;11249;52.468;13.776;2023-06-04T13:14:14;28.50;62.40
22167;DHT22;11249;52.468;13.776;2023-06-04T13:16:41;28.90;66.30
22167;DHT22;11249;52.468;13.776;2023-06-04T13:19:08;28.20;62.10
22167;DHT22;11249;52.468;13.776;2023-06-04T13:21:35;28.80;62.30
22167;DHT22;11249;52.468;13.776;2023-06-04T13:24:03;29.70;62.40
22167;DHT22;11249;52.468;13.776;2023-06-04T13:26:30;29.80;60.10
22167;DHT22;11249;52.468;13.776;2023-06-04T13:28:57;29.70;59.80
22167;DHT22;11249;52.468;13.776;2023-06-04T13:31:23;30.50;59.80
22167;DHT22;11249;52.468;13.776;2023-06-04T13:33:50;30.80;59.70
22167;DHT22;11249;52.468;13.776;2023-06-04T13:36:17;30.50;58.10
22167;DHT22;11249;52.468;13.776;2023-06-04T13:38:44;30.80;58.50
22167;DHT22;11249;52.468;13.776;2023-06-04T13:41:10;31.00;58.60
22167;DHT22;11249;52.468;13.776;2023-06-04T13:43:37;30.90;57.10
22167;DHT22;11249;52.468;13.776;2023-06-04T13:46:05;30.60;57.60
22167;DHT22;11249;52.468;13.776;2023-06-04T13:48:32;30.20;58.50
22167;DHT22;11249;52.468;13.776;2023-06-04T13:50:59;30.40;57.80
22167;DHT22;11249;52.468;13.776;2023-06-04T13:53:26;29.70;60.40
22167;DHT22;11249;52.468;13.776;2023-06-04T13:55:53;30.20;60.40
22167;DHT22;11249;52.468;13.776;2023-06-04T13:58:27;30.90;58.60
22167;DHT22;11249;52.468;13.776;2023-06-04T14:00:54;30.50;57.70
22167;DHT22;11249;52.468;13.776;2023-06-04T14:03:21;30.00;58.20
22167;DHT22;11249;52.468;13.776;2023-06-04T14:05:48;30.30;57.20
22167;DHT22;11249;52.468;13.776;2023-06-04T14:08:15;30.50;56.90
22167;DHT22;11249;52.468;13.776;2023-06-04T14:10:42;30.50;57.40
22167;DHT22;11249;52.468;13.776;2023-06-04T14:13:09;30.80;57.20
22167;DHT22;11249;52.468;13.776;2023-06-04T14:15:36;30.70;56.80
22167;DHT22;11249;52.468;13.776;2023-06-04T14:18:04;30.40;57.20
22167;DHT22;11249;52.468;13.776;2023-06-04T14:20:31;29.70;56.80
22167;DHT22;11249;52.468;13.776;2023-06-04T14:22:58;28.80;57.90
22167;DHT22;11249;52.468;13.776;2023-06-04T14:25:26;29.20;57.40
22167;DHT22;11249;52.468;13.776;2023-06-04T14:27:54;29.60;58.00
22167;DHT22;11249;52.468;13.776;2023-06-04T14:30:21;30.60;57.20
22167;DHT22;11249;52.468;13.776;2023-06-04T14:32:47;30.50;55.70
22167;DHT22;11249;52.468;13.776;2023-06-04T14:35:14;30.70;56.70
22167;DHT22;11249;52.468;13.776;2023-06-04T14:37:41;31.20;56.40
22167;DHT22;11249;52.468;13.776;2023-06-04T14:40:08;31.30;55.50
22167;DHT22;11249;52.468;13.776;2023-06-04T14:42:35;31.10;56.20
22167;DHT22;11249;52.468;13.776;2023-06-04T14:45:02;31.60;56.30
22167;DHT22;11249;52.468;13.776;2023-06-04T14:47:29;31.40;54.60
22167;DHT22;11249;52.468;13.776;2023-06-04T14:49:56;30.90;55.80
22167;DHT22;11249;52.468;13.776;2023-06-04T14:52:23;30.10;55.70
22167;DHT22;11249;52.468;13.776;2023-06-04T14:54:50;30.60;55.60
22167;DHT22;11249;52.468;13.776;2023-06-04T14:57:20;31.20;55.20
22167;DHT22;11249;52.468;13.776;2023-06-04T14:59:48;31.60;55.20
22167;DHT22;11249;52.468;13.776;2023-06-04T15:02:15;31.90;54.00
22167;DHT22;11249;52.468;13.776;2023-06-04T15:04:46;31.80;54.10
22167;DHT22;11249;52.468;13.776;2023-06-04T15:07:13;31.60;55.50
22167;DHT22;11249;52.468;13.776;2023-06-04T15:09:40;31.00;54.80
22167;DHT22;11249;52.468;13.776;2023-06-04T15:12:07;30.80;54.80
22167;DHT22;11249;52.468;13.776;2023-06-04T15:14:34;31.20;54.70
22167;DHT22;11249;52.468;13.776;2023-06-04T15:17:01;31.50;54.70
22167;DHT22;11249;52.468;13.776;2023-06-04T15:19:28;31.50;55.20
22167;DHT22;11249;52.468;13.776;2023-06-04T15:21:55;31.20;55.80
22167;DHT22;11249;52.468;13.776;2023-06-04T15:24:21;31.10;56.30
22167;DHT22;11249;52.468;13.776;2023-06-04T15:26:49;31.30;55.20
22167;DHT22;11249;52.468;13.776;2023-06-04T15:29:16;31.60;56.00